Time;durP1;ratioP1;P1;durP2;ratioP2;P2;SDS_P1;SDS_P2;PMS_P1;PMS_P2;Temp;Humidity;BMP_temperature;BMP_pressure;BME280_temperature;BME280_humidity;BME280_pressure;Samples;Min_cycle;Max_cycle;Signal;HPM_P1;HPM_P2
2024/04/26 05:01:21;;;;;;;16.10;8.43;;;;;;;;;;6131635;21;20847;-75
2024/04/26 05:03:47;;;;;;;17.80;8.77;;;;;;;;;;5268049;27;20468;-74
2024/04/26 05:06:13;;;;;;;15.60;7.87;;;;;;;;;;5248236;27;20471;-74
2024/04/26 05:08:39;;;;;;;13.70;8.27;;;;;;;;;;5241061;27;20456;-75
2024/04/26 05:11:07;;;;;;;22.17;8.17;;;;;;;;;;5248033;27;20523;-74
2024/04/26 05:13:33;;;;;;;17.87;7.80;;;;;;;;;;5211764;27;21068;-71
2024/04/26 05:15:59;;;;;;;22.60;8.17;;;;;;;;;;5208249;27;20530;-71
2024/04/26 05:18:25;;;;;;;20.27;8.10;;;;;;;;;;5207985;27;20461;-71
2024/04/26 05:20:53;;;;;;;23.83;9.57;;;;;;;;;;5217937;27;20526;-71
2024/04/26 05:23:19;;;;;;;23.90;7.83;;;;;;;;;;5226966;27;20471;-69
2024/04/26 05:25:45;;;;;;;19.27;8.27;;;;;;;;;;5237113;27;20581;-70
2024/04/26 05:28:11;;;;;;;16.63;7.33;;;;;;;;;;5241210;27;20455;-71
2024/04/26 05:30:37;;;;;;;16.73;7.03;;;;;;;;;;5241029;27;20602;-70
2024/04/26 05:33:03;;;;;;;13.83;7.27;;;;;;;;;;5208550;27;20538;-70
2024/04/26 05:35:30;;;;;;;11.33;6.10;;;;;;;;;;5211977;27;20565;-70
2024/04/26 05:37:56;;;;;;;19.13;7.20;;;;;;;;;;5209067;27;20473;-71
2024/04/26 05:40:22;;;;;;;12.67;7.07;;;;;;;;;;5240833;27;21010;-72
2024/04/26 05:42:48;;;;;;;15.13;6.83;;;;;;;;;;5242245;27;20522;-71
2024/04/26 05:45:14;;;;;;;15.10;6.70;;;;;;;;;;5244162;27;20527;-71
2024/04/26 05:47:40;;;;;;;21.60;7.80;;;;;;;;;;5243358;27;20541;-71
2024/04/26 05:50:06;;;;;;;23.27;8.40;;;;;;;;;;5243288;27;20448;-71
2024/04/26 05:52:32;;;;;;;17.83;6.43;;;;;;;;;;5244018;27;20541;-71
2024/04/26 05:54:57;;;;;;;15.37;7.03;;;;;;;;;;5244331;27;20451;-71
2024/04/26 05:57:23;;;;;;;21.03;6.90;;;;;;;;;;5244980;27;20447;-71
2024/04/26 05:59:50;;;;;;;19.00;7.20;;;;;;;;;;5242437;27;20483;-71
2024/04/26 06:02:16;;;;;;;16.73;6.50;;;;;;;;;;5244150;27;20588;-70
2024/04/26 06:04:46;;;;;;;17.83;7.60;;;;;;;;;;5244463;27;20459;-71
2024/04/26 06:07:12;;;;;;;15.90;7.63;;;;;;;;;;5244364;27;20455;-70
2024/04/26 06:09:38;;;;;;;25.10;7.90;;;;;;;;;;5243953;27;20447;-71
2024/04/26 06:12:04;;;;;;;15.93;7.40;;;;;;;;;;5244137;27;20543;-71
2024/04/26 06:14:30;;;;;;;17.60;8.33;;;;;;;;;;5244364;27;20541;-70
2024/04/26 06:16:57;;;;;;;24.20;7.93;;;;;;;;;;5243522;27;20479;-70
2024/04/26 06:19:23;;;;;;;22.63;10.43;;;;;;;;;;5244247;27;20447;-71
2024/04/26 06:21:49;;;;;;;18.53;9.57;;;;;;;;;;5244242;27;20588;-72
2024/04/26 06:24:15;;;;;;;16.70;8.20;;;;;;;;;;5243767;27;20504;-71
2024/04/26 06:26:41;;;;;;;24.37;7.50;;;;;;;;;;5243672;27;20527;-71
2024/04/26 06:29:07;;;;;;;17.07;8.37;;;;;;;;;;5243564;27;20455;-71
2024/04/26 06:31:33;;;;;;;21.27;7.43;;;;;;;;;;5242075;27;20566;-71
2024/04/26 06:33:59;;;;;;;18.40;7.50;;;;;;;;;;5243882;27;20440;-71
2024/04/26 06:36:24;;;;;;;21.20;8.27;;;;;;;;;;5243679;27;20448;-71
2024/04/26 06:38:50;;;;;;;18.00;7.13;;;;;;;;;;5243076;27;20452;-70
2024/04/26 06:41:16;;;;;;;16.03;7.90;;;;;;;;;;5242065;27;20495;-70
2024/04/26 06:43:42;;;;;;;15.93;7.20;;;;;;;;;;5243866;27;20456;-70
2024/04/26 06:46:08;;;;;;;15.00;7.73;;;;;;;;;;5243937;27;20610;-71
2024/04/26 06:48:34;;;;;;;26.43;8.67;;;;;;;;;;5243715;27;20447;-71
2024/04/26 06:51:01;;;;;;;19.43;7.33;;;;;;;;;;5243121;27;20596;-71
2024/04/26 06:53:27;;;;;;;18.83;6.70;;;;;;;;;;5244453;27;20448;-71
2024/04/26 06:55:53;;;;;;;14.60;6.63;;;;;;;;;;5243281;27;20871;-75
2024/04/26 06:58:19;;;;;;;14.60;7.03;;;;;;;;;;5241969;27;21160;-72
2024/04/26 07:00:45;;;;;;;16.60;7.67;;;;;;;;;;5243918;27;21006;-70
2024/04/26 07:03:11;;;;;;;14.43;7.20;;;;;;;;;;5243241;27;20456;-71
2024/04/26 07:05:37;;;;;;;13.87;5.80;;;;;;;;;;5243747;27;20512;-71
2024/04/26 07:08:03;;;;;;;20.43;7.03;;;;;;;;;;5243062;27;20459;-71
2024/04/26 07:10:29;;;;;;;9.43;6.00;;;;;;;;;;5242857;27;21065;-71
2024/04/26 07:12:55;;;;;;;11.50;5.30;;;;;;;;;;5241511;27;20455;-72
2024/04/26 07:15:20;;;;;;;12.67;6.00;;;;;;;;;;5243583;27;20452;-71
2024/04/26 07:17:48;;;;;;;10.40;5.00;;;;;;;;;;5243286;27;20448;-70
2024/04/26 07:20:16;;;;;;;15.00;5.90;;;;;;;;;;5214021;27;20459;-72
2024/04/26 07:22:42;;;;;;;11.40;5.20;;;;;;;;;;5243158;27;20871;-73
2024/04/26 07:25:08;;;;;;;9.37;5.57;;;;;;;;;;5243286;27;20510;-71
2024/04/26 07:27:34;;;;;;;11.50;6.20;;;;;;;;;;5242770;27;20568;-71
2024/04/26 07:30:00;;;;;;;12.97;6.13;;;;;;;;;;5241961;27;20587;-71
2024/04/26 07:32:26;;;;;;;19.13;6.60;;;;;;;;;;5243214;27;20516;-71
2024/04/26 07:34:52;;;;;;;19.73;5.70;;;;;;;;;;5243528;27;20440;-70
2024/04/26 07:37:18;;;;;;;11.30;5.63;;;;;;;;;;5243020;27;20456;-71
2024/04/26 07:39:44;;;;;;;12.60;5.87;;;;;;;;;;5242509;27;20504;-71
2024/04/26 07:42:10;;;;;;;16.73;6.70;;;;;;;;;;5243171;27;20468;-71
2024/04/26 07:44:36;;;;;;;10.73;6.27;;;;;;;;;;5242993;27;20443;-71
2024/04/26 07:47:02;;;;;;;12.73;5.87;;;;;;;;;;5241662;27;20584;-70
2024/04/26 07:49:31;;;;;;;15.03;5.67;;;;;;;;;;5242682;27;20464;-71
2024/04/26 07:51:57;;;;;;;8.93;4.90;;;;;;;;;;5213171;27;20586;-73
2024/04/26 07:54:26;;;;;;;14.83;6.00;;;;;;;;;;5213535;27;20515;-73
2024/04/26 07:56:52;;;;;;;7.63;5.00;;;;;;;;;;5242738;27;20503;-71
2024/04/26 07:59:18;;;;;;;10.00;4.90;;;;;;;;;;5242122;27;20452;-71
2024/04/26 08:01:44;;;;;;;9.30;4.57;;;;;;;;;;5242891;27;20549;-71
2024/04/26 08:04:10;;;;;;;11.10;5.17;;;;;;;;;;5229036;27;20527;-71
2024/04/26 08:06:36;;;;;;;13.17;4.60;;;;;;;;;;5209549;27;20452;-71
2024/04/26 08:09:02;;;;;;;9.97;4.60;;;;;;;;;;5208945;27;20449;-72
2024/04/26 08:11:28;;;;;;;11.53;4.50;;;;;;;;;;5209375;27;20517;-71
2024/04/26 08:13:54;;;;;;;9.60;4.80;;;;;;;;;;5209475;27;20525;-71
2024/04/26 08:16:20;;;;;;;10.00;4.90;;;;;;;;;;5210109;27;20875;-72
2024/04/26 08:18:46;;;;;;;4.30;2.97;;;;;;;;;;5217464;27;20542;-71
2024/04/26 08:21:14;;;;;;;7.37;3.67;;;;;;;;;;5216144;27;20526;-71
2024/04/26 08:23:40;;;;;;;6.30;3.23;;;;;;;;;;5251304;27;20450;-71
2024/04/26 08:26:06;;;;;;;9.40;3.30;;;;;;;;;;5251424;27;20452;-71
2024/04/26 08:28:32;;;;;;;3.77;2.60;;;;;;;;;;5249524;27;20590;-72
2024/04/26 08:30:58;;;;;;;7.23;2.57;;;;;;;;;;5251167;27;20467;-71
2024/04/26 08:33:24;;;;;;;9.37;2.93;;;;;;;;;;5218858;27;20451;-70
2024/04/26 08:35:51;;;;;;;6.67;2.50;;;;;;;;;;5247052;27;20502;-71
2024/04/26 08:38:16;;;;;;;4.73;2.43;;;;;;;;;;5242165;27;20467;-73
2024/04/26 08:40:43;;;;;;;3.53;2.40;;;;;;;;;;5242018;27;20472;-71
2024/04/26 08:43:09;;;;;;;4.87;2.07;;;;;;;;;;5213114;27;20531;-70
2024/04/26 08:45:39;;;;;;;4.47;2.30;;;;;;;;;;5242635;27;21217;-70
2024/04/26 08:48:06;;;;;;;3.90;2.50;;;;;;;;;;5241809;27;21045;-70
2024/04/26 08:50:34;;;;;;;3.70;2.20;;;;;;;;;;5242390;27;20467;-71
2024/04/26 08:53:01;;;;;;;5.13;2.27;;;;;;;;;;5242114;27;20544;-72
2024/04/26 08:55:27;;;;;;;5.37;2.40;;;;;;;;;;5242179;27;20499;-72
2024/04/26 08:57:54;;;;;;;3.50;2.57;;;;;;;;;;5240344;27;20475;-71
2024/04/26 09:00:20;;;;;;;3.40;2.80;;;;;;;;;;5241891;27;20589;-72
2024/04/26 09:02:46;;;;;;;4.23;2.10;;;;;;;;;;5241938;27;20856;-71
2024/04/26 09:05:13;;;;;;;4.23;2.40;;;;;;;;;;5242119;27;20463;-71
2024/04/26 09:07:40;;;;;;;9.23;2.80;;;;;;;;;;5241253;27;20499;-71
2024/04/26 09:10:06;;;;;;;6.63;2.60;;;;;;;;;;5241661;27;20443;-70
2024/04/26 09:12:32;;;;;;;3.53;2.90;;;;;;;;;;5239637;27;20507;-71
2024/04/26 09:14:58;;;;;;;4.77;2.23;;;;;;;;;;5241467;27;20452;-71
2024/04/26 09:17:28;;;;;;;2.80;2.33;;;;;;;;;;5244758;27;20455;-71
2024/04/26 09:19:54;;;;;;;3.90;2.13;;;;;;;;;;5244515;27;20451;-70
2024/04/26 09:22:22;;;;;;;5.00;3.13;;;;;;;;;;5244870;27;20594;-70
2024/04/26 09:24:51;;;;;;;5.03;2.47;;;;;;;;;;5245198;27;20511;-73
2024/04/26 09:27:17;;;;;;;2.83;2.50;;;;;;;;;;5245442;27;20597;-72
2024/04/26 09:29:43;;;;;;;7.97;2.83;;;;;;;;;;5213683;27;20587;-71
2024/04/26 09:32:09;;;;;;;4.87;2.73;;;;;;;;;;5244757;27;20522;-71
2024/04/26 09:34:36;;;;;;;4.77;2.50;;;;;;;;;;5245063;27;20452;-71
2024/04/26 09:37:05;;;;;;;3.33;2.77;;;;;;;;;;5244251;27;20542;-72
2024/04/26 09:39:31;;;;;;;3.10;2.17;;;;;;;;;;5244529;27;20502;-72
2024/04/26 09:41:58;;;;;;;9.07;2.93;;;;;;;;;;5244660;27;20523;-72
2024/04/26 09:44:25;;;;;;;5.73;3.40;;;;;;;;;;5215476;27;20504;-74
2024/04/26 09:46:51;;;;;;;4.90;2.90;;;;;;;;;;5213868;27;20524;-72
2024/04/26 09:49:17;;;;;;;7.70;2.90;;;;;;;;;;5244380;27;20543;-72
2024/04/26 09:51:44;;;;;;;4.20;2.73;;;;;;;;;;5244179;27;20863;-72
2024/04/26 09:54:11;;;;;;;3.63;2.67;;;;;;;;;;5244264;27;20523;-72
2024/04/26 09:56:39;;;;;;;6.00;3.87;;;;;;;;;;5243959;27;20570;-74
2024/04/26 09:59:05;;;;;;;6.77;3.97;;;;;;;;;;5243373;27;20527;-74
2024/04/26 10:01:33;;;;;;;13.63;3.73;;;;;;;;;;5214239;27;21070;-72
2024/04/26 10:04:01;;;;;;;5.00;3.00;;;;;;;;;;5242629;27;20475;-72
2024/04/26 10:06:27;;;;;;;3.27;3.10;;;;;;;;;;5242450;27;20901;-72
2024/04/26 10:08:53;;;;;;;3.63;3.17;;;;;;;;;;5243460;27;20506;-72
2024/04/26 10:11:21;;;;;;;5.37;3.40;;;;;;;;;;5243772;27;20475;-73
2024/04/26 10:13:52;;;;;;;8.67;2.93;;;;;;;;;;5243487;27;20453;-72
2024/04/26 10:16:45;;;;;;;6.17;3.27;;;;;;;;;;5243961;27;20951;-72
2024/04/26 10:19:19;;;;;;;7.97;3.03;;;;;;;;;;5237408;27;20495;-73
2024/04/26 10:21:45;;;;;;;4.80;2.90;;;;;;;;;;5214415;27;20471;-72
2024/04/26 10:24:11;;;;;;;3.97;2.50;;;;;;;;;;5243825;27;20456;-72
2024/04/26 10:26:37;;;;;;;4.90;3.47;;;;;;;;;;5242958;27;20506;-71
2024/04/26 10:29:12;;;;;;;3.80;2.60;;;;;;;;;;5243170;27;21120;-72
2024/04/26 10:31:39;;;;;;;2.67;2.30;;;;;;;;;;5243594;27;20628;-72
2024/04/26 10:34:17;;;;;;;5.00;2.53;;;;;;;;;;5242308;27;20472;-71
2024/04/26 10:36:49;;;;;;;6.33;2.83;;;;;;;;;;5242199;27;20479;-72
2024/04/26 10:39:28;;;;;;;5.27;3.00;;;;;;;;;;5243116;27;20799;-71
2024/04/26 10:41:56;;;;;;;7.03;3.00;;;;;;;;;;5243795;27;20467;-72
2024/04/26 10:44:22;;;;;;;7.33;2.70;;;;;;;;;;5242618;27;20822;-72
2024/04/26 10:46:54;;;;;;;9.57;3.10;;;;;;;;;;5243705;27;20459;-72
2024/04/26 10:49:20;;;;;;;3.60;2.53;;;;;;;;;;5243472;27;20528;-72
2024/04/26 10:51:46;;;;;;;4.10;2.57;;;;;;;;;;5243826;27;20460;-72
2024/04/26 10:54:13;;;;;;;5.53;2.73;;;;;;;;;;5244085;27;20503;-72
2024/04/26 10:56:42;;;;;;;6.83;2.63;;;;;;;;;;5243288;27;20529;-73
2024/04/26 10:59:25;;;;;;;5.60;2.40;;;;;;;;;;5243010;27;20463;-71
2024/04/26 11:01:55;;;;;;;6.73;2.70;;;;;;;;;;5241812;27;20578;-72
2024/04/26 11:04:21;;;;;;;7.07;2.40;;;;;;;;;;5244201;27;20724;-72
2024/04/26 11:06:51;;;;;;;9.40;2.63;;;;;;;;;;5243437;27;20550;-71
2024/04/26 11:09:18;;;;;;;5.67;3.10;;;;;;;;;;5242890;27;20575;-72
2024/04/26 11:11:47;;;;;;;7.40;2.67;;;;;;;;;;5242558;27;21094;-72
2024/04/26 11:14:13;;;;;;;5.67;2.63;;;;;;;;;;5258433;22;20984;-71
2024/04/26 11:16:40;;;;;;;4.20;3.20;;;;;;;;;;5246683;27;20443;-73
2024/04/26 11:19:07;;;;;;;2.57;2.00;;;;;;;;;;5244007;27;20475;-73
2024/04/26 11:21:33;;;;;;;5.17;2.80;;;;;;;;;;5245699;27;20523;-73
2024/04/26 11:23:59;;;;;;;3.60;2.50;;;;;;;;;;5245356;27;20515;-72
2024/04/26 11:26:25;;;;;;;5.53;2.70;;;;;;;;;;5243635;27;20505;-73
2024/04/26 11:28:51;;;;;;;5.10;3.10;;;;;;;;;;5246036;27;20463;-73
2024/04/26 11:31:17;;;;;;;8.07;3.47;;;;;;;;;;5246344;27;20809;-71
2024/04/26 11:33:43;;;;;;;6.30;2.30;;;;;;;;;;5247418;27;20559;-71
2024/04/26 11:36:09;;;;;;;5.10;2.80;;;;;;;;;;5243095;27;20476;-73
2024/04/26 11:38:35;;;;;;;3.63;2.33;;;;;;;;;;5243168;27;20463;-71
2024/04/26 11:41:00;;;;;;;7.00;2.80;;;;;;;;;;5244587;27;20795;-72
2024/04/26 11:43:26;;;;;;;7.90;2.53;;;;;;;;;;5248212;27;20571;-72
2024/04/26 11:45:52;;;;;;;5.00;2.50;;;;;;;;;;5244924;27;20475;-71
2024/04/26 11:48:19;;;;;;;4.40;2.30;;;;;;;;;;5244314;27;20499;-71
2024/04/26 11:50:47;;;;;;;6.23;2.47;;;;;;;;;;5244049;27;20443;-72
2024/04/26 11:53:14;;;;;;;8.10;2.33;;;;;;;;;;5242588;27;20471;-72
2024/04/26 11:55:41;;;;;;;3.90;2.17;;;;;;;;;;5251242;27;20463;-71
2024/04/26 11:58:07;;;;;;;5.23;2.93;;;;;;;;;;5260575;27;20459;-72
2024/04/26 12:00:33;;;;;;;4.70;2.60;;;;;;;;;;5250892;27;20520;-71
2024/04/26 12:02:59;;;;;;;5.43;2.50;;;;;;;;;;5257148;27;20448;-71
2024/04/26 12:05:25;;;;;;;3.43;2.23;;;;;;;;;;5258388;27;20512;-72
2024/04/26 12:07:51;;;;;;;6.07;1.90;;;;;;;;;;5252266;27;20479;-72
2024/04/26 12:10:18;;;;;;;4.63;2.43;;;;;;;;;;5241650;27;20512;-72
2024/04/26 12:12:45;;;;;;;4.00;2.10;;;;;;;;;;5216498;27;20513;-73
2024/04/26 12:15:11;;;;;;;3.93;2.30;;;;;;;;;;5219290;27;20531;-72
2024/04/26 12:17:37;;;;;;;5.40;2.47;;;;;;;;;;5241905;27;20467;-73
2024/04/26 12:20:03;;;;;;;2.93;2.20;;;;;;;;;;5226912;27;20722;-71
2024/04/26 12:22:29;;;;;;;3.23;2.00;;;;;;;;;;5237934;27;20519;-72
2024/04/26 12:24:55;;;;;;;4.17;2.00;;;;;;;;;;5223723;27;20537;-71
2024/04/26 12:27:22;;;;;;;7.53;4.00;;;;;;;;;;5211258;27;20513;-72
2024/04/26 12:29:48;;;;;;;7.10;2.77;;;;;;;;;;5238459;27;20460;-72
2024/04/26 12:32:14;;;;;;;3.97;2.90;;;;;;;;;;5244374;27;20524;-71
2024/04/26 12:34:40;;;;;;;7.00;3.10;;;;;;;;;;5243284;27;20833;-72
2024/04/26 12:37:06;;;;;;;4.83;2.77;;;;;;;;;;5242456;27;20451;-73
2024/04/26 12:39:33;;;;;;;2.50;2.10;;;;;;;;;;5246342;27;20460;-72
2024/04/26 12:41:58;;;;;;;3.30;2.50;;;;;;;;;;5233461;27;20551;-71
2024/04/26 12:44:24;;;;;;;3.00;2.03;;;;;;;;;;5229988;27;20821;-70
2024/04/26 12:46:51;;;;;;;4.50;2.50;;;;;;;;;;5241035;27;20626;-71
2024/04/26 12:49:17;;;;;;;2.47;1.90;;;;;;;;;;5244549;27;20456;-72
2024/04/26 12:51:44;;;;;;;5.13;1.97;;;;;;;;;;5246149;27;20921;-71
2024/04/26 12:54:10;;;;;;;2.30;1.80;;;;;;;;;;5257217;27;20474;-71
2024/04/26 12:56:35;;;;;;;1.63;1.57;;;;;;;;;;5240600;27;21097;-72
2024/04/26 12:59:01;;;;;;;3.80;2.10;;;;;;;;;;5212117;27;20814;-71
2024/04/26 13:01:29;;;;;;;3.30;2.00;;;;;;;;;;5218213;27;20825;-71
2024/04/26 13:03:55;;;;;;;3.77;2.20;;;;;;;;;;5232945;27;20813;-72
2024/04/26 13:06:21;;;;;;;4.50;2.07;;;;;;;;;;5213812;27;21007;-70
2024/04/26 13:08:47;;;;;;;3.60;2.67;;;;;;;;;;5211271;27;20461;-71
2024/04/26 13:11:23;;;;;;;4.00;2.43;;;;;;;;;;5207535;27;20464;-71
2024/04/26 13:13:51;;;;;;;1.93;1.70;;;;;;;;;;5212834;27;20448;-73
2024/04/26 13:16:18;;;;;;;3.90;2.47;;;;;;;;;;5221115;27;20818;-73
2024/04/26 13:18:44;;;;;;;4.63;2.20;;;;;;;;;;5239551;27;20571;-73
2024/04/26 13:21:10;;;;;;;3.60;2.50;;;;;;;;;;5245840;27;20459;-72
2024/04/26 13:23:41;;;;;;;6.27;2.90;;;;;;;;;;5243162;27;20879;-74
2024/04/26 13:26:08;;;;;;;2.77;2.30;;;;;;;;;;5235111;27;20583;-71
2024/04/26 13:28:34;;;;;;;2.93;1.70;;;;;;;;;;5241791;27;20518;-71
2024/04/26 13:31:00;;;;;;;3.50;1.77;;;;;;;;;;5240000;27;21062;-70
2024/04/26 13:33:26;;;;;;;4.17;2.13;;;;;;;;;;5221850;27;20475;-71
2024/04/26 13:35:52;;;;;;;2.80;1.67;;;;;;;;;;5244768;27;20590;-72
2024/04/26 13:38:18;;;;;;;5.43;2.20;;;;;;;;;;5244621;27;20846;-72
2024/04/26 13:40:46;;;;;;;4.10;2.00;;;;;;;;;;5234806;27;20869;-72
2024/04/26 13:43:12;;;;;;;3.17;2.27;;;;;;;;;;5213930;27;21002;-75
2024/04/26 13:45:38;;;;;;;3.70;1.67;;;;;;;;;;5233090;27;20515;-75
2024/04/26 13:48:05;;;;;;;2.50;1.70;;;;;;;;;;5233774;27;21013;-76
2024/04/26 13:50:30;;;;;;;2.07;1.77;;;;;;;;;;5234281;27;20484;-73
2024/04/26 13:52:56;;;;;;;2.97;1.97;;;;;;;;;;5243833;27;20464;-73
2024/04/26 13:55:23;;;;;;;3.10;2.20;;;;;;;;;;5254169;27;20517;-75
2024/04/26 13:57:49;;;;;;;6.03;2.10;;;;;;;;;;5228085;27;20471;-73
2024/04/26 14:00:15;;;;;;;2.50;1.93;;;;;;;;;;5240464;27;20814;-70
2024/04/26 14:02:41;;;;;;;2.77;1.97;;;;;;;;;;5238867;27;20789;-69
2024/04/26 14:05:07;;;;;;;3.50;1.53;;;;;;;;;;5239400;27;20569;-70
2024/04/26 14:07:34;;;;;;;1.60;1.20;;;;;;;;;;5228693;27;20627;-70
2024/04/26 14:10:00;;;;;;;2.83;1.40;;;;;;;;;;5225351;27;20469;-72
2024/04/26 14:12:26;;;;;;;9.93;1.60;;;;;;;;;;5213879;27;20520;-71
2024/04/26 14:14:52;;;;;;;1.60;1.50;;;;;;;;;;5239081;27;20519;-72
2024/04/26 14:17:18;;;;;;;2.20;1.60;;;;;;;;;;5240226;27;20592;-70
2024/04/26 14:19:44;;;;;;;2.33;1.53;;;;;;;;;;5216684;27;20486;-71
2024/04/26 14:22:10;;;;;;;1.63;1.30;;;;;;;;;;5226937;27;20468;-72
2024/04/26 14:24:37;;;;;;;3.07;1.60;;;;;;;;;;5229601;27;20459;-72
2024/04/26 14:27:03;;;;;;;1.50;1.30;;;;;;;;;;5237045;27;20550;-72
2024/04/26 14:29:33;;;;;;;3.33;1.30;;;;;;;;;;5243067;27;20529;-71
2024/04/26 14:31:59;;;;;;;6.47;1.60;;;;;;;;;;5235685;27;20525;-70
2024/04/26 14:34:26;;;;;;;1.57;1.30;;;;;;;;;;5239415;27;20471;-71
2024/04/26 14:36:52;;;;;;;3.37;1.80;;;;;;;;;;5240372;27;20519;-70
2024/04/26 14:39:20;;;;;;;2.43;1.30;;;;;;;;;;5214241;27;20453;-71
2024/04/26 14:41:46;;;;;;;3.87;1.73;;;;;;;;;;5213394;27;20506;-70
2024/04/26 14:44:12;;;;;;;1.37;1.00;;;;;;;;;;5227781;27;20515;-72
2024/04/26 14:46:38;;;;;;;1.43;1.10;;;;;;;;;;5242118;27;20452;-70
2024/04/26 14:49:04;;;;;;;1.63;1.10;;;;;;;;;;5234230;27;20563;-74
2024/04/26 14:51:30;;;;;;;2.70;1.47;;;;;;;;;;5238048;27;20468;-73
2024/04/26 14:53:57;;;;;;;2.63;1.20;;;;;;;;;;5243244;27;21130;-74
2024/04/26 14:56:23;;;;;;;3.93;3.10;;;;;;;;;;5243364;27;20471;-75
2024/04/26 14:58:49;;;;;;;1.67;1.30;;;;;;;;;;5241675;27;20893;-74
2024/04/26 15:01:18;;;;;;;3.27;1.30;;;;;;;;;;5238035;27;20517;-73
2024/04/26 15:03:45;;;;;;;1.87;1.20;;;;;;;;;;5220953;27;21115;-73
2024/04/26 15:06:11;;;;;;;2.40;1.30;;;;;;;;;;5224379;27;20489;-71
2024/04/26 15:08:37;;;;;;;5.30;1.30;;;;;;;;;;5219850;27;20465;-69
2024/04/26 15:11:03;;;;;;;4.00;1.57;;;;;;;;;;5228703;27;21191;-69
2024/04/26 15:13:29;;;;;;;1.43;1.10;;;;;;;;;;5231168;27;20527;-69
2024/04/26 15:15:55;;;;;;;2.47;1.17;;;;;;;;;;5214160;27;20552;-70
2024/04/26 15:18:22;;;;;;;1.50;1.07;;;;;;;;;;5229048;27;20455;-70
2024/04/26 15:20:48;;;;;;;1.57;1.43;;;;;;;;;;5210985;27;20473;-70
2024/04/26 15:23:14;;;;;;;4.07;2.43;;;;;;;;;;5238241;27;21131;-70
2024/04/26 15:25:40;;;;;;;6.40;3.80;;;;;;;;;;5235211;27;20532;-71
2024/04/26 15:28:06;;;;;;;5.57;2.70;;;;;;;;;;5241401;27;20576;-70
2024/04/26 15:30:33;;;;;;;2.47;1.40;;;;;;;;;;5245632;27;20491;-70
2024/04/26 15:32:59;;;;;;;2.77;1.40;;;;;;;;;;5255586;27;20507;-70
2024/04/26 15:35:25;;;;;;;4.43;1.90;;;;;;;;;;5245961;27;20966;-69
2024/04/26 15:37:51;;;;;;;1.83;1.13;;;;;;;;;;5240436;27;20452;-69
2024/04/26 15:40:17;;;;;;;1.00;0.83;;;;;;;;;;5242413;27;20443;-71
2024/04/26 15:42:43;;;;;;;2.93;1.20;;;;;;;;;;5241147;27;20572;-70
2024/04/26 15:45:09;;;;;;;2.83;1.50;;;;;;;;;;5223271;27;20472;-71
2024/04/26 15:47:38;;;;;;;2.00;1.10;;;;;;;;;;5234076;27;20518;-70
2024/04/26 15:50:04;;;;;;;1.47;1.37;;;;;;;;;;5240206;27;20447;-69
2024/04/26 15:52:30;;;;;;;2.70;1.40;;;;;;;;;;5240013;27;20471;-70
2024/04/26 15:54:56;;;;;;;1.60;1.30;;;;;;;;;;5240945;27;20586;-69
2024/04/26 15:57:22;;;;;;;2.13;1.30;;;;;;;;;;5242392;27;20563;-70
2024/04/26 15:59:48;;;;;;;1.63;1.37;;;;;;;;;;5242415;27;20597;-69
2024/04/26 16:02:15;;;;;;;1.80;1.00;;;;;;;;;;5216869;27;21198;-71
2024/04/26 16:04:42;;;;;;;2.50;1.30;;;;;;;;;;5248461;27;20568;-70
2024/04/26 16:07:08;;;;;;;2.63;1.30;;;;;;;;;;5241194;27;20883;-70
2024/04/26 16:09:34;;;;;;;1.90;1.10;;;;;;;;;;5240403;27;20960;-70
2024/04/26 16:12:00;;;;;;;2.63;1.20;;;;;;;;;;5240480;27;20456;-70
2024/04/26 16:14:26;;;;;;;1.50;1.40;;;;;;;;;;5240865;27;20463;-71
2024/04/26 16:16:52;;;;;;;2.20;1.53;;;;;;;;;;5234497;27;20537;-70
2024/04/26 16:19:18;;;;;;;5.23;1.60;;;;;;;;;;5239877;27;20512;-71
2024/04/26 16:21:44;;;;;;;5.50;1.93;;;;;;;;;;5239117;27;20513;-71
2024/04/26 16:24:10;;;;;;;4.87;2.57;;;;;;;;;;5239834;27;21051;-69
2024/04/26 16:26:36;;;;;;;8.70;3.03;;;;;;;;;;5241545;27;20491;-70
2024/04/26 16:29:04;;;;;;;7.20;3.20;;;;;;;;;;5240289;27;20795;-70
2024/04/26 16:31:30;;;;;;;10.77;2.90;;;;;;;;;;5236996;27;21080;-70
2024/04/26 16:33:56;;;;;;;4.87;2.97;;;;;;;;;;5210969;27;20536;-71
2024/04/26 16:36:23;;;;;;;6.40;1.80;;;;;;;;;;5233896;27;20487;-69
2024/04/26 16:38:52;;;;;;;4.50;2.40;;;;;;;;;;5218505;27;20485;-69
2024/04/26 16:41:24;;;;;;;4.50;2.30;;;;;;;;;;5234823;27;20503;-70
2024/04/26 16:43:54;;;;;;;4.00;2.67;;;;;;;;;;5219204;27;20529;-68
2024/04/26 16:46:20;;;;;;;4.00;3.23;;;;;;;;;;5208472;27;20465;-69
2024/04/26 16:48:47;;;;;;;7.20;3.33;;;;;;;;;;5210163;27;20473;-69
2024/04/26 16:51:13;;;;;;;4.87;2.63;;;;;;;;;;5238844;27;20549;-69
2024/04/26 16:53:39;;;;;;;4.57;2.50;;;;;;;;;;5230188;27;20463;-69
2024/04/26 16:56:05;;;;;;;6.10;2.70;;;;;;;;;;5212942;27;21011;-70
2024/04/26 16:58:32;;;;;;;3.93;2.20;;;;;;;;;;5227957;27;20799;-70
2024/04/26 17:00:58;;;;;;;5.27;2.77;;;;;;;;;;5243439;27;20448;-70
2024/04/26 17:03:24;;;;;;;5.60;3.17;;;;;;;;;;5242583;27;20560;-69
2024/04/26 17:05:50;;;;;;;7.33;2.80;;;;;;;;;;5214146;27;21060;-70
2024/04/26 17:08:16;;;;;;;7.20;2.77;;;;;;;;;;5236724;27;20936;-69
2024/04/26 17:10:42;;;;;;;6.20;3.87;;;;;;;;;;5213108;27;20469;-69
2024/04/26 17:13:08;;;;;;;7.53;2.70;;;;;;;;;;5227228;27;20589;-69
2024/04/26 17:15:34;;;;;;;5.63;2.30;;;;;;;;;;5205201;27;20454;-70
2024/04/26 17:18:01;;;;;;;5.40;2.50;;;;;;;;;;5215689;27;20459;-72
2024/04/26 17:20:27;;;;;;;3.97;2.93;;;;;;;;;;5233924;27;20552;-70
2024/04/26 17:22:54;;;;;;;4.27;2.50;;;;;;;;;;5206615;27;20445;-69
2024/04/26 17:25:20;;;;;;;2.60;2.43;;;;;;;;;;5206696;27;20604;-71
2024/04/26 17:27:46;;;;;;;7.77;2.30;;;;;;;;;;5228831;27;20484;-69
2024/04/26 17:30:12;;;;;;;9.60;2.50;;;;;;;;;;5208075;27;20504;-70
2024/04/26 17:32:38;;;;;;;3.47;2.90;;;;;;;;;;5205563;27;20556;-73
2024/04/26 17:35:04;;;;;;;2.87;2.20;;;;;;;;;;5229656;27;20533;-69
2024/04/26 17:37:30;;;;;;;3.17;2.10;;;;;;;;;;5225884;27;20526;-70
2024/04/26 17:40:02;;;;;;;12.60;3.20;;;;;;;;;;5247436;27;20483;-69
2024/04/26 17:42:28;;;;;;;3.50;2.67;;;;;;;;;;5234863;27;20528;-70
2024/04/26 17:44:54;;;;;;;3.83;2.63;;;;;;;;;;5241320;27;21292;-71
2024/04/26 17:47:20;;;;;;;3.50;2.73;;;;;;;;;;5242600;27;20440;-72
2024/04/26 17:49:47;;;;;;;4.10;2.50;;;;;;;;;;5217964;27;20570;-70
2024/04/26 17:52:13;;;;;;;5.70;2.87;;;;;;;;;;5239162;27;20464;-73
2024/04/26 17:54:39;;;;;;;8.53;2.90;;;;;;;;;;5222371;27;20519;-73
2024/04/26 17:57:05;;;;;;;3.37;2.30;;;;;;;;;;5241910;27;20811;-71
2024/04/26 17:59:31;;;;;;;9.23;3.30;;;;;;;;;;5233809;27;20524;-69
2024/04/26 18:01:57;;;;;;;3.70;2.80;;;;;;;;;;5243743;27;20463;-68
2024/04/26 18:04:23;;;;;;;4.03;2.90;;;;;;;;;;5232814;27;20524;-69
2024/04/26 18:06:49;;;;;;;5.80;3.10;;;;;;;;;;5225270;27;21011;-69
2024/04/26 18:09:16;;;;;;;4.20;3.07;;;;;;;;;;5211555;27;20457;-72
2024/04/26 18:11:45;;;;;;;4.50;3.03;;;;;;;;;;5219885;27;20524;-71
2024/04/26 18:14:12;;;;;;;6.67;2.63;;;;;;;;;;5222466;27;20533;-69
2024/04/26 18:16:37;;;;;;;10.03;3.70;;;;;;;;;;5211073;27;20513;-69
2024/04/26 18:19:04;;;;;;;4.87;2.17;;;;;;;;;;5209807;27;20449;-69
2024/04/26 18:21:29;;;;;;;6.23;2.90;;;;;;;;;;5238709;27;20554;-70
2024/04/26 18:23:56;;;;;;;2.70;1.50;;;;;;;;;;5210327;27;20505;-69
2024/04/26 18:26:23;;;;;;;1.80;1.60;;;;;;;;;;5216545;27;20518;-69
2024/04/26 18:28:49;;;;;;;4.13;2.10;;;;;;;;;;5241831;27;20456;-70
2024/04/26 18:31:14;;;;;;;3.43;1.83;;;;;;;;;;5243240;27;20605;-70
2024/04/26 18:33:44;;;;;;;2.50;1.80;;;;;;;;;;5228351;27;20453;-69
2024/04/26 18:36:20;;;;;;;3.43;1.80;;;;;;;;;;5208639;27;20469;-69
2024/04/26 18:38:47;;;;;;;3.13;2.50;;;;;;;;;;5209181;27;20468;-69
2024/04/26 18:41:13;;;;;;;5.03;2.67;;;;;;;;;;5222228;27;20504;-69
2024/04/26 18:43:42;;;;;;;6.20;3.53;;;;;;;;;;5221508;27;20473;-70
2024/04/26 18:46:09;;;;;;;5.97;3.00;;;;;;;;;;5213544;27;20521;-69
2024/04/26 18:48:35;;;;;;;4.70;3.00;;;;;;;;;;5208560;27;20572;-70
2024/04/26 18:51:03;;;;;;;3.43;2.20;;;;;;;;;;5230274;27;20565;-70
2024/04/26 18:53:30;;;;;;;2.50;1.90;;;;;;;;;;5226110;27;20473;-70
2024/04/26 18:55:56;;;;;;;2.70;1.97;;;;;;;;;;5211092;27;20461;-70
2024/04/26 18:58:22;;;;;;;7.10;1.90;;;;;;;;;;5212557;27;20537;-71
2024/04/26 19:00:48;;;;;;;3.80;2.30;;;;;;;;;;5236637;27;20501;-71
2024/04/26 19:03:14;;;;;;;2.67;2.00;;;;;;;;;;5212219;27;20465;-68
2024/04/26 19:05:42;;;;;;;4.17;2.20;;;;;;;;;;5237364;27;20476;-72
2024/04/26 19:08:08;;;;;;;4.80;2.50;;;;;;;;;;5240754;27;20459;-70
2024/04/26 19:10:35;;;;;;;5.30;3.10;;;;;;;;;;5242632;27;21002;-70
2024/04/26 19:13:03;;;;;;;5.40;3.30;;;;;;;;;;5227744;27;20856;-69
2024/04/26 19:15:30;;;;;;;7.33;2.93;;;;;;;;;;5211095;27;20568;-72
2024/04/26 19:17:56;;;;;;;7.10;4.00;;;;;;;;;;5241829;27;20455;-70
2024/04/26 19:20:24;;;;;;;4.27;3.10;;;;;;;;;;5234671;27;20864;-70
2024/04/26 19:22:54;;;;;;;7.30;3.30;;;;;;;;;;5212352;27;20464;-68
2024/04/26 19:25:20;;;;;;;5.63;3.40;;;;;;;;;;5212090;27;20483;-72
2024/04/26 19:27:47;;;;;;;6.23;3.23;;;;;;;;;;5215049;27;20524;-72
2024/04/26 19:30:16;;;;;;;5.63;3.53;;;;;;;;;;5221999;27;20468;-73
2024/04/26 19:32:42;;;;;;;6.10;3.43;;;;;;;;;;5236350;27;20518;-74
2024/04/26 19:35:08;;;;;;;7.60;3.87;;;;;;;;;;5242607;27;20870;-73
2024/04/26 19:37:34;;;;;;;3.63;2.50;;;;;;;;;;5235716;27;20913;-73